createdAt,value
2022-12-08T00:00:54.928Z,14.38
2022-12-08T00:03:21.885Z,11.52
2022-12-08T00:05:49.798Z,12.82
2022-12-08T00:08:16.587Z,12.60
2022-12-08T00:10:50.797Z,11.52
2022-12-08T00:13:18.818Z,15.40
2022-12-08T00:15:45.387Z,15.23
2022-12-08T00:18:12.168Z,11.50
2022-12-08T00:20:38.859Z,11.20
2022-12-08T00:23:05.440Z,11.40
2022-12-08T00:25:35.712Z,17.23
2022-12-08T00:28:02.368Z,13.13
2022-12-08T00:30:30.502Z,15.60
2022-12-08T00:32:57.167Z,15.60
2022-12-08T00:35:23.857Z,16.95
2022-12-08T00:37:50.401Z,16.77
2022-12-08T00:40:17.188Z,24.20
2022-12-08T00:42:43.778Z,24.83
2022-12-08T00:45:11.574Z,21.45
2022-12-08T00:47:39.573Z,21.75
2022-12-08T00:50:07.427Z,20.13
2022-12-08T00:52:34.060Z,22.00
2022-12-08T00:55:00.699Z,20.98
2022-12-08T00:57:27.429Z,15.45
2022-12-08T00:59:54.007Z,20.35
2022-12-08T01:02:20.599Z,21.48
2022-12-08T01:04:48.536Z,28.48
2022-12-08T01:07:15.169Z,21.10
2022-12-08T01:09:41.873Z,18.00
2022-12-08T01:12:09.093Z,18.80
2022-12-08T01:14:37.026Z,20.52
2022-12-08T01:17:03.953Z,23.67
2022-12-08T01:19:30.673Z,18.88
2022-12-08T01:21:59.487Z,20.35
2022-12-08T01:24:26.920Z,17.58
2022-12-08T01:26:53.495Z,17.70
2022-12-08T01:29:20.093Z,18.38
2022-12-08T01:31:46.707Z,20.23
2022-12-08T01:34:13.304Z,15.50
2022-12-08T01:36:41.173Z,18.60
2022-12-08T01:39:14.043Z,17.40
2022-12-08T01:41:41.354Z,16.20
2022-12-08T01:44:45.349Z,15.00
2022-12-08T01:47:12.038Z,18.77
2022-12-08T01:49:38.664Z,17.27
2022-12-08T01:52:11.001Z,18.38
2022-12-08T01:54:44.239Z,14.10
2022-12-08T01:57:16.816Z,14.82
2022-12-08T01:59:49.824Z,16.80
2022-12-08T02:02:16.484Z,13.15
2022-12-08T02:04:43.115Z,15.73
2022-12-08T02:07:12.266Z,14.25
2022-12-08T02:09:41.754Z,13.00
2022-12-08T02:12:09.861Z,15.80
2022-12-08T02:14:36.647Z,15.63
2022-12-08T02:17:10.535Z,14.10
2022-12-08T02:20:04.377Z,14.90
2022-12-08T02:25:15.939Z,10.32
2022-12-08T02:27:52.035Z,10.32
2022-12-08T02:30:22.063Z,11.30
2022-12-08T02:33:13.570Z,11.02
2022-12-08T02:35:47.666Z,9.27
2022-12-08T02:38:24.081Z,11.52
2022-12-08T02:41:00.935Z,11.70
2022-12-08T02:43:33.819Z,10.40
2022-12-08T02:46:03.482Z,10.70
2022-12-08T02:48:32.426Z,10.32
2022-12-08T02:51:01.029Z,11.95
2022-12-08T02:53:30.528Z,11.05
2022-12-08T02:56:03.265Z,12.32
2022-12-08T02:59:02.188Z,10.63
2022-12-08T03:02:02.045Z,7.15
2022-12-08T03:04:38.330Z,8.18
2022-12-08T03:07:11.363Z,11.68
2022-12-08T03:09:41.854Z,7.18
2022-12-08T03:12:16.954Z,11.38
2022-12-08T03:14:49.869Z,8.15
2022-12-08T03:17:19.327Z,7.03
2022-12-08T03:19:48.690Z,9.40
2022-12-08T03:22:21.898Z,7.55
2022-12-08T03:24:49.355Z,7.47
2022-12-08T03:27:19.785Z,9.68
2022-12-08T03:29:47.247Z,6.50
2022-12-08T03:32:21.985Z,9.25
2022-12-08T03:34:51.506Z,11.43
2022-12-08T03:37:20.759Z,8.60
2022-12-08T03:39:47.441Z,8.60
2022-12-08T03:42:14.051Z,9.93
2022-12-08T03:44:40.738Z,9.32
2022-12-08T03:47:07.312Z,9.70
2022-12-08T03:49:33.956Z,8.30
2022-12-08T03:52:00.654Z,8.25
2022-12-08T03:54:28.728Z,12.05
2022-12-08T03:56:55.382Z,14.25
2022-12-08T03:59:21.917Z,11.30
2022-12-08T04:01:48.677Z,10.82
2022-12-08T04:04:15.328Z,12.32
2022-12-08T04:06:41.935Z,12.43
2022-12-08T04:09:09.395Z,13.43
2022-12-08T04:11:37.415Z,12.38
2022-12-08T04:14:04.023Z,15.40
2022-12-08T04:16:30.793Z,13.50
2022-12-08T04:18:57.546Z,17.38
2022-12-08T04:21:24.170Z,12.07
2022-12-08T04:23:52.146Z,18.80
2022-12-08T04:26:21.525Z,13.52
2022-12-08T04:28:49.523Z,15.05
2022-12-08T04:31:16.153Z,15.63
2022-12-08T04:33:42.778Z,14.45
2022-12-08T04:36:09.767Z,20.08
2022-12-08T04:38:36.402Z,15.05
2022-12-08T04:41:03.215Z,20.50
2022-12-08T04:43:29.833Z,21.23
2022-12-08T04:45:57.831Z,16.98
2022-12-08T04:48:24.497Z,19.85
2022-12-08T04:50:51.104Z,25.38
2022-12-08T04:53:17.789Z,22.10
2022-12-08T04:55:44.940Z,20.70
2022-12-08T04:58:12.705Z,22.67
2022-12-08T05:00:39.298Z,21.92
2022-12-08T05:03:07.404Z,25.20
2022-12-08T05:05:34.022Z,24.90
2022-12-08T05:08:00.691Z,24.58
2022-12-08T05:10:27.539Z,26.52
2022-12-08T05:12:54.083Z,20.02
2022-12-08T05:15:20.688Z,24.35
2022-12-08T05:17:47.246Z,22.00
2022-12-08T05:20:15.389Z,21.90
2022-12-08T05:22:41.983Z,25.05
2022-12-08T05:25:09.289Z,19.95
2022-12-08T05:27:36.460Z,23.27
2022-12-08T05:30:03.752Z,19.45
2022-12-08T05:32:30.593Z,23.25
2022-12-08T05:34:57.129Z,23.88
2022-12-08T05:37:25.103Z,20.40
2022-12-08T05:39:51.655Z,23.42
2022-12-08T05:42:23.173Z,20.73
2022-12-08T05:44:51.313Z,18.17
2022-12-08T05:47:17.894Z,23.45
2022-12-08T05:49:44.488Z,21.52
2022-12-08T05:52:11.145Z,24.13
2022-12-08T05:54:39.072Z,18.05
2022-12-08T05:57:05.610Z,18.23
2022-12-08T05:59:32.353Z,23.60
2022-12-08T06:01:59.128Z,24.67
2022-12-08T06:04:25.830Z,29.13
2022-12-08T06:06:52.396Z,25.70
2022-12-08T06:09:18.958Z,22.08
2022-12-08T06:11:46.865Z,22.60
2022-12-08T06:14:13.745Z,30.75
2022-12-08T06:16:40.414Z,27.83
2022-12-08T06:19:07.057Z,22.52
2022-12-08T06:21:33.843Z,25.77
2022-12-08T06:24:00.432Z,24.90
2022-12-08T06:26:27.061Z,25.45
2022-12-08T06:28:55.044Z,23.63
2022-12-08T06:31:23.541Z,26.58
2022-12-08T06:33:50.931Z,23.85
2022-12-08T06:36:19.776Z,23.83
2022-12-08T06:38:46.705Z,27.05
2022-12-08T06:41:13.678Z,29.85
2022-12-08T06:43:40.275Z,27.13
2022-12-08T06:46:10.776Z,26.95
2022-12-08T06:48:37.423Z,23.48
2022-12-08T06:51:08.833Z,25.20
2022-12-08T06:53:35.395Z,31.95
2022-12-08T06:56:02.103Z,26.30
2022-12-08T06:58:28.855Z,23.30
2022-12-08T07:00:55.550Z,29.95
2022-12-08T07:03:23.614Z,23.65
2022-12-08T07:05:50.210Z,24.45
2022-12-08T07:08:16.898Z,28.85
2022-12-08T07:10:43.513Z,28.23
2022-12-08T07:13:10.117Z,33.47
2022-12-08T07:15:36.797Z,25.75
2022-12-08T07:18:03.613Z,23.77
2022-12-08T07:20:31.577Z,22.83
2022-12-08T07:22:58.372Z,24.98
2022-12-08T07:25:24.951Z,24.80
2022-12-08T07:27:51.600Z,22.83
2022-12-08T07:30:18.657Z,26.27
2022-12-08T07:32:45.794Z,27.23
2022-12-08T07:35:12.456Z,25.20
2022-12-08T07:37:40.441Z,25.75
2022-12-08T07:40:09.246Z,27.60
2022-12-08T07:42:35.995Z,24.20
2022-12-08T07:45:02.611Z,24.98
2022-12-08T07:47:29.203Z,25.33
2022-12-08T07:49:55.808Z,22.98
2022-12-08T07:52:22.421Z,27.27
2022-12-08T07:54:50.422Z,28.42
2022-12-08T07:57:17.091Z,24.92
2022-12-08T07:59:43.726Z,25.92
2022-12-08T08:02:25.734Z,27.23
2022-12-08T08:04:53.127Z,27.70
2022-12-08T08:07:19.820Z,25.85
2022-12-08T08:09:46.409Z,24.50
2022-12-08T08:12:30.674Z,18.38
2022-12-08T08:14:58.523Z,23.08
2022-12-08T08:17:25.311Z,22.83
2022-12-08T08:19:51.955Z,21.40
2022-12-08T08:22:18.555Z,24.30
2022-12-08T08:24:45.438Z,20.63
2022-12-08T08:27:13.677Z,23.83
2022-12-08T08:29:40.224Z,22.15
2022-12-08T08:32:06.812Z,26.48
2022-12-08T08:34:33.455Z,25.00
2022-12-08T08:37:00.285Z,23.10
2022-12-08T08:39:27.156Z,20.90
2022-12-08T08:41:53.855Z,20.83
2022-12-08T08:44:21.802Z,24.80
2022-12-08T08:46:48.403Z,27.42
2022-12-08T08:49:15.066Z,28.52
2022-12-08T08:51:41.735Z,24.70
2022-12-08T08:54:08.324Z,24.70
2022-12-08T08:56:35.031Z,18.70
2022-12-08T08:59:01.705Z,22.58
2022-12-08T09:01:30.241Z,22.42
2022-12-08T09:03:57.058Z,17.38
2022-12-08T09:06:24.715Z,20.00
2022-12-08T09:08:51.939Z,19.70
2022-12-08T09:11:18.800Z,21.77
2022-12-08T09:13:47.861Z,24.75
2022-12-08T09:16:14.496Z,24.33
2022-12-08T09:18:42.498Z,26.38
2022-12-08T09:21:11.100Z,17.13
2022-12-08T09:23:37.756Z,17.90
2022-12-08T09:26:05.233Z,20.63
2022-12-08T09:28:31.813Z,19.15
2022-12-08T09:30:58.469Z,21.13
2022-12-08T09:33:25.174Z,26.05
2022-12-08T09:35:53.240Z,25.02
2022-12-08T09:38:19.876Z,20.23
2022-12-08T09:40:50.489Z,20.75
2022-12-08T09:43:31.428Z,19.08
2022-12-08T09:45:59.337Z,19.77
2022-12-08T09:48:31.791Z,17.63
2022-12-08T09:50:59.872Z,21.60
2022-12-08T09:53:35.902Z,19.75
2022-12-08T09:56:08.539Z,26.90
2022-12-08T09:58:48.069Z,20.55
2022-12-08T10:01:15.542Z,20.40
2022-12-08T10:03:43.036Z,24.48
2022-12-08T10:06:19.957Z,20.23
2022-12-08T10:08:56.110Z,23.90
2022-12-08T10:11:29.225Z,19.80
2022-12-08T10:14:03.159Z,23.10
2022-12-08T10:16:34.718Z,18.02
2022-12-08T10:19:13.345Z,24.52
2022-12-08T10:21:41.479Z,17.52
2022-12-08T10:24:15.459Z,18.88
2022-12-08T10:26:42.844Z,17.92
2022-12-08T10:29:13.089Z,20.10
2022-12-08T10:31:39.903Z,18.33
2022-12-08T10:34:17.363Z,20.42
2022-12-08T10:36:53.027Z,17.27
2022-12-08T10:39:34.702Z,26.80
2022-12-08T10:42:06.278Z,19.42
2022-12-08T10:44:33.111Z,17.90
2022-12-08T10:46:59.957Z,15.27
2022-12-08T10:49:31.761Z,17.15
2022-12-08T10:51:59.923Z,23.77
2022-12-08T10:54:29.226Z,17.60
2022-12-08T10:56:57.044Z,16.30
2022-12-08T10:59:24.541Z,14.75
2022-12-08T11:01:52.928Z,20.15
2022-12-08T11:04:21.721Z,16.15
2022-12-08T11:06:50.036Z,16.15
2022-12-08T11:09:32.419Z,14.55
2022-12-08T11:12:00.853Z,18.02
2022-12-08T11:14:29.935Z,15.07
2022-12-08T11:17:04.739Z,11.73
2022-12-08T11:19:31.538Z,13.88
2022-12-08T11:21:58.248Z,14.63
2022-12-08T11:24:32.303Z,18.13
2022-12-08T11:27:02.476Z,17.13
2022-12-08T11:29:32.663Z,20.83
2022-12-08T11:32:02.736Z,18.50
2022-12-08T11:34:35.413Z,15.40
2022-12-08T11:37:04.983Z,20.43
2022-12-08T11:39:36.343Z,17.20
2022-12-08T11:42:05.790Z,15.70
2022-12-08T11:44:38.776Z,18.40
2022-12-08T11:47:10.581Z,20.58
2022-12-08T11:49:39.178Z,18.25
2022-12-08T11:52:17.384Z,17.05
2022-12-08T11:54:52.106Z,19.90
2022-12-08T11:57:23.246Z,17.88
2022-12-08T11:59:52.014Z,17.85
2022-12-08T12:02:22.038Z,16.77
2022-12-08T12:04:54.432Z,16.77
2022-12-08T12:07:53.041Z,17.02
2022-12-08T12:10:39.659Z,14.98
2022-12-08T12:13:19.374Z,15.73
2022-12-08T12:16:19.535Z,20.20
2022-12-08T12:18:50.927Z,15.55
2022-12-08T12:21:22.320Z,17.17
2022-12-08T12:23:54.255Z,19.85
2022-12-08T12:26:24.781Z,18.98
2022-12-08T12:28:55.830Z,14.23
2022-12-08T12:31:26.033Z,21.33
2022-12-08T12:33:57.142Z,16.23
2022-12-08T12:36:24.102Z,18.83
2022-12-08T12:38:55.331Z,21.45
2022-12-08T12:41:28.014Z,18.58
2022-12-08T12:44:20.844Z,26.75
2022-12-08T12:46:57.205Z,16.73
2022-12-08T12:50:05.535Z,15.85
2022-12-08T12:52:53.429Z,17.60
2022-12-08T12:55:29.741Z,11.82
2022-12-08T12:58:01.654Z,12.18
2022-12-08T13:00:28.336Z,11.93
2022-12-08T13:02:56.498Z,14.82
2022-12-08T13:05:26.213Z,14.45
2022-12-08T13:07:56.146Z,11.07
2022-12-08T13:10:25.508Z,11.57
2022-12-08T13:13:15.544Z,11.80
2022-12-08T13:15:49.690Z,14.30
2022-12-08T13:18:20.941Z,11.63
2022-12-08T13:20:51.553Z,15.40
2022-12-08T13:23:44.529Z,16.60
2022-12-08T13:26:16.538Z,20.35
2022-12-08T13:29:16.711Z,15.10
2022-12-08T13:31:50.052Z,14.57
2022-12-08T13:34:21.880Z,15.38
2022-12-08T13:36:57.232Z,12.15
2022-12-08T13:39:28.967Z,14.20
2022-12-08T13:42:02.051Z,17.73
2022-12-08T13:45:18.682Z,14.18
2022-12-08T13:47:34.673Z,12.30
2022-12-08T13:58:37.263Z,15.65
2022-12-08T14:01:10.739Z,12.45
2022-12-08T14:06:36.547Z,17.23
2022-12-08T14:09:10.852Z,12.70
2022-12-08T14:11:40.914Z,13.65
2022-12-08T14:14:14.300Z,18.83
2022-12-08T14:16:49.118Z,14.10
2022-12-08T14:19:19.304Z,13.80
2022-12-08T14:21:54.437Z,14.32
2022-12-08T14:24:22.682Z,16.20
2022-12-08T14:26:52.777Z,15.70
2022-12-08T14:29:35.970Z,15.10
2022-12-08T14:32:04.529Z,15.40
2022-12-08T14:34:35.105Z,14.50
2022-12-08T14:37:01.893Z,13.60
2022-12-08T14:39:28.654Z,15.60
2022-12-08T14:42:00.085Z,14.02
2022-12-08T14:44:30.952Z,11.52
2022-12-08T14:47:07.357Z,11.15
2022-12-08T14:49:35.974Z,14.27
2022-12-08T14:52:08.583Z,15.13
2022-12-08T14:54:35.822Z,14.77
2022-12-08T14:57:03.327Z,13.50
2022-12-08T14:59:32.852Z,15.18
2022-12-08T15:02:20.927Z,13.45
2022-12-08T15:04:50.507Z,13.88
2022-12-08T15:07:19.499Z,14.25
2022-12-08T15:09:48.756Z,14.98
2022-12-08T15:12:26.815Z,12.68
2022-12-08T15:14:56.594Z,16.25
2022-12-08T15:17:34.753Z,14.88
2022-12-08T15:20:03.383Z,12.45
2022-12-08T15:22:30.781Z,11.50
2022-12-08T15:24:57.979Z,12.10
2022-12-08T15:27:25.594Z,10.63
2022-12-08T15:29:53.012Z,13.57
2022-12-08T15:32:23.191Z,15.85
2022-12-08T15:34:51.409Z,13.60
2022-12-08T15:37:22.104Z,12.85
2022-12-08T15:39:49.236Z,14.68
2022-12-08T15:42:16.054Z,14.73
2022-12-08T15:44:43.257Z,13.98
2022-12-08T15:47:16.208Z,14.27
2022-12-08T15:49:43.042Z,15.88
2022-12-08T15:52:15.913Z,14.88
2022-12-08T15:54:42.690Z,14.05
2022-12-08T15:57:29.987Z,12.40
2022-12-08T16:00:36.415Z,12.30
2022-12-08T16:03:42.265Z,11.95
2022-12-08T16:06:16.547Z,11.25
2022-12-08T16:08:49.465Z,14.90
2022-12-08T16:11:56.811Z,13.43
2022-12-08T16:14:48.793Z,15.90
2022-12-08T16:16:56.384Z,16.30
2022-12-08T16:19:23.102Z,14.02
2022-12-08T16:22:30.297Z,15.15
2022-12-08T16:24:37.875Z,15.82
2022-12-08T16:29:51.568Z,19.90
2022-12-08T16:32:18.400Z,19.27
2022-12-08T16:34:45.283Z,15.93
2022-12-08T16:37:15.142Z,18.38
2022-12-08T16:39:45.917Z,18.25
2022-12-08T16:42:14.354Z,27.92
2022-12-08T16:44:41.600Z,19.25
2022-12-08T16:47:09.149Z,23.13
2022-12-08T16:49:37.054Z,24.05
2022-12-08T16:52:04.186Z,24.58
2022-12-08T16:54:31.178Z,18.65
2022-12-08T16:57:01.043Z,20.00
2022-12-08T16:59:27.721Z,25.60
2022-12-08T17:01:54.439Z,22.10
2022-12-08T17:04:36.693Z,21.75
2022-12-08T17:07:03.403Z,29.42
2022-12-08T17:09:31.274Z,27.27
2022-12-08T17:12:03.776Z,21.40
2022-12-08T17:14:33.478Z,22.75
2022-12-08T17:17:00.260Z,19.52
2022-12-08T17:19:27.047Z,20.10
2022-12-08T17:21:53.717Z,22.42
2022-12-08T17:24:22.272Z,15.88
2022-12-08T17:26:49.252Z,15.60
2022-12-08T17:29:17.353Z,14.20
2022-12-08T17:31:44.112Z,16.67
2022-12-08T17:34:11.144Z,19.85
2022-12-08T17:36:38.072Z,20.40
2022-12-08T17:39:05.697Z,17.85
2022-12-08T17:41:32.800Z,15.48
2022-12-08T17:43:59.527Z,15.13
2022-12-08T17:46:27.847Z,16.67
2022-12-08T17:48:54.546Z,20.88
2022-12-08T17:51:21.243Z,17.08
2022-12-08T17:53:48.098Z,19.88
2022-12-08T17:56:18.294Z,19.02
2022-12-08T17:58:48.542Z,17.50
2022-12-08T18:01:17.995Z,20.98
2022-12-08T18:03:46.064Z,16.13
2022-12-08T18:06:12.878Z,15.45
2022-12-08T18:08:40.230Z,16.35
2022-12-08T18:11:12.054Z,18.00
2022-12-08T18:13:38.881Z,19.27
2022-12-08T18:16:05.798Z,17.75
2022-12-08T18:18:32.576Z,18.58
2022-12-08T18:21:00.732Z,17.30
2022-12-08T18:23:27.454Z,17.83
2022-12-08T18:25:54.306Z,20.15
2022-12-08T18:28:21.063Z,19.77
2022-12-08T18:30:47.839Z,22.25
2022-12-08T18:33:14.546Z,18.83
2022-12-08T18:35:41.283Z,16.70
2022-12-08T18:38:09.411Z,19.67
2022-12-08T18:40:36.545Z,16.95
2022-12-08T18:43:03.248Z,19.55
2022-12-08T18:45:29.938Z,22.88
2022-12-08T18:47:56.607Z,19.58
2022-12-08T18:50:23.369Z,18.88
2022-12-08T18:52:50.068Z,19.17
2022-12-08T18:55:18.362Z,18.80
2022-12-08T18:57:45.138Z,21.70
2022-12-08T19:00:14.662Z,20.67
2022-12-08T19:02:42.117Z,23.75
2022-12-08T19:05:10.850Z,21.40
2022-12-08T19:07:38.252Z,19.45
2022-12-08T19:10:06.931Z,23.27
2022-12-08T19:12:35.249Z,25.27
2022-12-08T19:15:01.982Z,21.17
2022-12-08T19:17:28.626Z,28.50
2022-12-08T19:19:55.359Z,24.42
2022-12-08T19:22:22.011Z,26.55
2022-12-08T19:24:48.660Z,24.20
2022-12-08T19:27:15.383Z,26.42
2022-12-08T19:29:43.480Z,22.55
2022-12-08T19:32:10.148Z,27.65
2022-12-08T19:34:36.773Z,27.95
2022-12-08T19:37:03.525Z,23.70
2022-12-08T19:39:30.370Z,23.23
2022-12-08T19:41:57.114Z,20.35
2022-12-08T19:44:26.139Z,22.30
2022-12-08T19:46:54.400Z,20.95
2022-12-08T19:49:21.186Z,22.00
2022-12-08T19:51:47.828Z,24.05
2022-12-08T19:54:14.562Z,22.67
2022-12-08T19:56:41.183Z,23.88
2022-12-08T19:59:07.972Z,23.15
2022-12-08T20:01:34.721Z,26.67
2022-12-08T20:04:02.924Z,26.65
2022-12-08T20:06:29.586Z,20.88
2022-12-08T20:08:56.273Z,21.90
2022-12-08T20:11:23.038Z,24.70
2022-12-08T20:13:49.725Z,28.55
2022-12-08T20:16:16.740Z,26.27
2022-12-08T20:18:43.794Z,24.77
2022-12-08T20:21:12.340Z,26.15
2022-12-08T20:23:39.048Z,24.90
2022-12-08T20:26:06.498Z,24.33
2022-12-08T20:28:34.487Z,23.02
2022-12-08T20:31:01.490Z,25.52
2022-12-08T20:33:28.320Z,29.25
2022-12-08T20:35:59.214Z,66.30
2022-12-08T20:38:27.777Z,86.32
2022-12-08T20:40:54.485Z,47.13
2022-12-08T20:43:21.602Z,35.90
2022-12-08T20:45:48.315Z,41.63
2022-12-08T20:48:14.977Z,57.28
2022-12-08T20:50:42.046Z,45.33
2022-12-08T20:53:09.240Z,46.42
2022-12-08T20:55:40.605Z,52.55
2022-12-08T20:58:07.302Z,40.60
2022-12-08T21:00:34.146Z,39.88
2022-12-08T21:03:01.263Z,28.23
2022-12-08T21:05:28.399Z,27.98
2022-12-08T21:07:55.286Z,25.90
2022-12-08T21:10:22.192Z,27.77
2022-12-08T21:12:50.367Z,26.50
2022-12-08T21:15:17.325Z,24.05
2022-12-08T21:17:44.187Z,34.00
2022-12-08T21:20:11.952Z,42.65
2022-12-08T21:22:38.856Z,52.08
2022-12-08T21:25:06.488Z,45.30
2022-12-08T21:27:33.707Z,44.53
2022-12-08T21:30:02.071Z,43.22
2022-12-08T21:32:30.602Z,40.70
2022-12-08T21:34:57.676Z,39.83
2022-12-08T21:37:24.915Z,41.35
2022-12-08T21:39:51.863Z,44.90
2022-12-08T21:42:21.473Z,42.72
2022-12-08T21:44:49.587Z,36.58
2022-12-08T21:47:17.787Z,39.00
2022-12-08T21:49:44.560Z,56.70
2022-12-08T21:52:11.616Z,61.03
2022-12-08T21:54:38.441Z,77.07
2022-12-08T21:57:05.251Z,79.03
2022-12-08T21:59:32.188Z,78.20
2022-12-08T22:01:58.999Z,73.35
2022-12-08T22:04:27.679Z,57.05
2022-12-08T22:06:54.485Z,43.75
2022-12-08T22:09:21.574Z,37.03
2022-12-08T22:11:48.611Z,30.45
2022-12-08T22:14:15.573Z,29.02
2022-12-08T22:16:42.830Z,32.97
2022-12-08T22:19:10.182Z,37.70
2022-12-08T22:21:38.491Z,31.00
2022-12-08T22:24:06.173Z,32.22
2022-12-08T22:26:33.533Z,27.98
2022-12-08T22:29:00.616Z,37.63
2022-12-08T22:31:28.415Z,37.95
2022-12-08T22:33:55.295Z,34.20
2022-12-08T22:36:23.867Z,27.92
2022-12-08T22:38:53.404Z,23.50
2022-12-08T22:41:21.179Z,19.08
2022-12-08T22:43:48.660Z,24.85
2022-12-08T22:46:17.301Z,19.38
2022-12-08T22:48:44.504Z,22.30
2022-12-08T22:51:11.396Z,23.25
2022-12-08T22:53:38.322Z,29.23
2022-12-08T22:56:08.184Z,21.02
2022-12-08T22:58:34.908Z,20.00
2022-12-08T23:01:01.740Z,17.05
2022-12-08T23:03:28.776Z,23.85
2022-12-08T23:05:55.613Z,18.25
2022-12-08T23:08:22.487Z,18.83
2022-12-08T23:10:51.443Z,16.27
2022-12-08T23:13:20.788Z,20.10
2022-12-08T23:15:47.773Z,20.05
2022-12-08T23:18:17.476Z,18.83
2022-12-08T23:20:44.380Z,17.50
2022-12-08T23:23:11.161Z,18.35
2022-12-08T23:25:40.430Z,18.52
2022-12-08T23:28:07.862Z,19.65
2022-12-08T23:30:36.511Z,19.67
2022-12-08T23:33:03.664Z,21.35
2022-12-08T23:35:30.423Z,18.65
2022-12-08T23:37:57.156Z,16.70
2022-12-08T23:40:24.188Z,18.33
2022-12-08T23:42:50.854Z,21.55
2022-12-08T23:45:17.750Z,21.13
2022-12-08T23:47:46.047Z,27.10
2022-12-08T23:50:13.149Z,24.38
2022-12-08T23:52:40.223Z,21.55
2022-12-08T23:55:08.350Z,21.20
2022-12-08T23:57:35.667Z,27.30
